sensor_id;sensor_type;location;lat;lon;timestamp;pressure;altitude;pressure_sealevel;temperature;humidity
82872;BME280;72646;43.596;1.428;2024-02-26T00:02:16;97941.25;;;18.54;47.00
82872;BME280;72646;43.596;1.428;2024-02-26T00:04:41;97934.59;;;18.55;47.21
82872;BME280;72646;43.596;1.428;2024-02-26T00:07:07;97938.47;;;18.54;47.27
82872;BME280;72646;43.596;1.428;2024-02-26T00:09:33;97926.66;;;18.49;47.23
82872;BME280;72646;43.596;1.428;2024-02-26T00:12:01;97925.84;;;18.48;47.44
82872;BME280;72646;43.596;1.428;2024-02-26T00:14:31;97931.59;;;18.52;47.28
82872;BME280;72646;43.596;1.428;2024-02-26T00:17:00;97924.41;;;18.51;47.50
82872;BME280;72646;43.596;1.428;2024-02-26T00:19:25;97921.66;;;18.51;47.04
82872;BME280;72646;43.596;1.428;2024-02-26T00:21:53;97893.09;;;18.37;47.11
82872;BME280;72646;43.596;1.428;2024-02-26T00:24:21;97908.13;;;18.49;47.34
82872;BME280;72646;43.596;1.428;2024-02-26T00:26:47;97904.78;;;18.52;47.57
82872;BME280;72646;43.596;1.428;2024-02-26T00:29:18;97907.53;;;18.52;47.24
82872;BME280;72646;43.596;1.428;2024-02-26T00:31:43;97906.50;;;18.48;47.27
82872;BME280;72646;43.596;1.428;2024-02-26T00:34:09;97905.38;;;18.49;47.23
82872;BME280;72646;43.596;1.428;2024-02-26T00:36:34;97890.75;;;18.49;47.35
82872;BME280;72646;43.596;1.428;2024-02-26T00:38:59;97874.22;;;18.44;47.46
82872;BME280;72646;43.596;1.428;2024-02-26T00:41:25;97887.16;;;18.48;47.35
82872;BME280;72646;43.596;1.428;2024-02-26T00:43:50;97873.63;;;18.47;47.48
82872;BME280;72646;43.596;1.428;2024-02-26T00:46:16;97864.31;;;18.43;47.51
82872;BME280;72646;43.596;1.428;2024-02-26T00:48:41;97867.34;;;18.41;47.20
82872;BME280;72646;43.596;1.428;2024-02-26T00:51:06;97872.59;;;18.43;47.55
82872;BME280;72646;43.596;1.428;2024-02-26T00:53:33;97862.66;;;18.42;47.71
82872;BME280;72646;43.596;1.428;2024-02-26T00:55:58;97865.25;;;18.33;47.83
82872;BME280;72646;43.596;1.428;2024-02-26T00:58:24;97875.44;;;18.38;47.63
82872;BME280;72646;43.596;1.428;2024-02-26T01:00:50;97869.91;;;18.38;47.44
82872;BME280;72646;43.596;1.428;2024-02-26T01:03:15;97876.00;;;18.35;47.81
82872;BME280;72646;43.596;1.428;2024-02-26T01:05:42;97871.06;;;18.32;48.03
82872;BME280;72646;43.596;1.428;2024-02-26T01:08:07;97863.19;;;18.20;47.83
82872;BME280;72646;43.596;1.428;2024-02-26T01:10:33;97879.97;;;18.24;47.98
82872;BME280;72646;43.596;1.428;2024-02-26T01:12:59;97882.44;;;18.25;48.02
82872;BME280;72646;43.596;1.428;2024-02-26T01:15:24;97875.00;;;18.26;47.90
82872;BME280;72646;43.596;1.428;2024-02-26T01:17:50;97864.00;;;18.21;48.21
82872;BME280;72646;43.596;1.428;2024-02-26T01:20:16;97867.09;;;18.19;47.84
82872;BME280;72646;43.596;1.428;2024-02-26T01:22:43;97861.31;;;18.16;48.39
82872;BME280;72646;43.596;1.428;2024-02-26T01:25:09;97868.44;;;18.22;48.30
82872;BME280;72646;43.596;1.428;2024-02-26T01:27:37;97874.75;;;18.22;47.74
82872;BME280;72646;43.596;1.428;2024-02-26T01:30:03;97861.47;;;18.24;47.79
82872;BME280;72646;43.596;1.428;2024-02-26T01:32:29;97862.59;;;18.23;48.12
82872;BME280;72646;43.596;1.428;2024-02-26T01:34:54;97854.06;;;18.20;48.31
82872;BME280;72646;43.596;1.428;2024-02-26T01:37:20;97857.69;;;18.20;48.04
82872;BME280;72646;43.596;1.428;2024-02-26T01:39:45;97854.31;;;18.23;48.21
82872;BME280;72646;43.596;1.428;2024-02-26T01:42:11;97859.84;;;18.23;47.93
82872;BME280;72646;43.596;1.428;2024-02-26T01:44:36;97859.00;;;18.23;47.96
82872;BME280;72646;43.596;1.428;2024-02-26T01:47:04;97857.38;;;18.22;48.01
82872;BME280;72646;43.596;1.428;2024-02-26T01:49:30;97860.34;;;18.25;47.85
82872;BME280;72646;43.596;1.428;2024-02-26T01:51:57;97851.56;;;18.23;48.09
82872;BME280;72646;43.596;1.428;2024-02-26T01:54:23;97858.72;;;18.24;47.99
82872;BME280;72646;43.596;1.428;2024-02-26T01:56:49;97868.13;;;18.23;48.05
82872;BME280;72646;43.596;1.428;2024-02-26T01:59:16;97857.09;;;18.23;47.93
82872;BME280;72646;43.596;1.428;2024-02-26T02:01:44;97846.09;;;18.18;48.20
82872;BME280;72646;43.596;1.428;2024-02-26T02:04:13;97850.19;;;18.21;47.88
82872;BME280;72646;43.596;1.428;2024-02-26T02:06:39;97851.56;;;18.23;48.10
82872;BME280;72646;43.596;1.428;2024-02-26T02:09:05;97852.38;;;18.24;48.09
82872;BME280;72646;43.596;1.428;2024-02-26T02:11:33;97841.91;;;18.21;48.09
82872;BME280;72646;43.596;1.428;2024-02-26T02:13:59;97852.06;;;18.25;47.89
82872;BME280;72646;43.596;1.428;2024-02-26T02:16:24;97844.91;;;18.24;48.09
82872;BME280;72646;43.596;1.428;2024-02-26T02:18:50;97844.63;;;18.26;48.02
82872;BME280;72646;43.596;1.428;2024-02-26T02:21:15;97850.13;;;18.26;48.13
82872;BME280;72646;43.596;1.428;2024-02-26T02:23:40;97843.28;;;18.23;47.92
82872;BME280;72646;43.596;1.428;2024-02-26T02:26:12;97841.31;;;18.24;48.31
82872;BME280;72646;43.596;1.428;2024-02-26T02:28:39;97835.00;;;18.23;47.96
82872;BME280;72646;43.596;1.428;2024-02-26T02:31:05;97833.88;;;18.24;48.35
82872;BME280;72646;43.596;1.428;2024-02-26T02:33:30;97816.53;;;18.19;48.12
82872;BME280;72646;43.596;1.428;2024-02-26T02:35:56;97818.13;;;18.25;48.09
82872;BME280;72646;43.596;1.428;2024-02-26T02:38:23;97818.13;;;18.25;48.04
82872;BME280;72646;43.596;1.428;2024-02-26T02:40:53;97818.63;;;18.27;48.23
82872;BME280;72646;43.596;1.428;2024-02-26T02:43:19;97809.59;;;18.21;48.32
82872;BME280;72646;43.596;1.428;2024-02-26T02:45:44;97814.22;;;18.26;47.91
82872;BME280;72646;43.596;1.428;2024-02-26T02:48:11;97798.94;;;18.15;48.08
82872;BME280;72646;43.596;1.428;2024-02-26T02:50:36;97810.94;;;18.24;47.97
82872;BME280;72646;43.596;1.428;2024-02-26T02:53:02;97821.97;;;18.24;48.20
82872;BME280;72646;43.596;1.428;2024-02-26T02:55:27;97812.91;;;18.23;47.90
82872;BME280;72646;43.596;1.428;2024-02-26T02:57:53;97810.44;;;18.22;48.14
82872;BME280;72646;43.596;1.428;2024-02-26T03:00:18;97811.53;;;18.21;47.91
82872;BME280;72646;43.596;1.428;2024-02-26T03:02:44;97807.66;;;18.22;47.94
82872;BME280;72646;43.596;1.428;2024-02-26T03:05:10;97822.56;;;18.21;48.02
82872;BME280;72646;43.596;1.428;2024-02-26T03:07:35;97808.59;;;18.12;48.02
82872;BME280;72646;43.596;1.428;2024-02-26T03:10:01;97812.94;;;18.18;48.06
82872;BME280;72646;43.596;1.428;2024-02-26T03:12:26;97811.84;;;18.19;47.95
82872;BME280;72646;43.596;1.428;2024-02-26T03:14:53;97816.25;;;18.20;48.05
82872;BME280;72646;43.596;1.428;2024-02-26T03:17:20;97816.53;;;18.19;47.79
82872;BME280;72646;43.596;1.428;2024-02-26T03:19:45;97816.84;;;18.17;47.99
82872;BME280;72646;43.596;1.428;2024-02-26T03:22:18;97813.84;;;18.14;47.82
82872;BME280;72646;43.596;1.428;2024-02-26T03:24:44;97818.25;;;18.15;47.76
82872;BME280;72646;43.596;1.428;2024-02-26T03:27:09;97829.81;;;18.17;47.81
82872;BME280;72646;43.596;1.428;2024-02-26T03:29:36;97829.81;;;18.17;47.90
82872;BME280;72646;43.596;1.428;2024-02-26T03:32:02;97823.19;;;18.18;47.80
82872;BME280;72646;43.596;1.428;2024-02-26T03:34:28;97822.66;;;18.16;47.80
82872;BME280;72646;43.596;1.428;2024-02-26T03:36:53;97811.16;;;18.09;47.87
82872;BME280;72646;43.596;1.428;2024-02-26T03:39:19;97816.38;;;18.10;47.89
82872;BME280;72646;43.596;1.428;2024-02-26T03:41:44;97819.06;;;18.15;47.82
82872;BME280;72646;43.596;1.428;2024-02-26T03:44:10;97810.31;;;18.08;47.66
82872;BME280;72646;43.596;1.428;2024-02-26T03:46:35;97829.59;;;18.13;47.83
82872;BME280;72646;43.596;1.428;2024-02-26T03:49:00;97832.38;;;18.13;47.77
82872;BME280;72646;43.596;1.428;2024-02-26T03:51:26;97833.16;;;18.14;47.56
82872;BME280;72646;43.596;1.428;2024-02-26T03:53:53;97804.50;;;18.10;47.50
82872;BME280;72646;43.596;1.428;2024-02-26T03:56:18;97809.44;;;18.13;47.23
82872;BME280;72646;43.596;1.428;2024-02-26T03:58:44;97810.56;;;18.12;47.44
82872;BME280;72646;43.596;1.428;2024-02-26T04:01:09;97807.25;;;18.10;47.84
82872;BME280;72646;43.596;1.428;2024-02-26T04:03:35;97823.53;;;18.11;47.70
82872;BME280;72646;43.596;1.428;2024-02-26T04:06:01;97824.41;;;18.07;47.53
82872;BME280;72646;43.596;1.428;2024-02-26T04:08:26;97827.44;;;18.10;47.36
82872;BME280;72646;43.596;1.428;2024-02-26T04:10:52;97808.22;;;18.00;47.59
82872;BME280;72646;43.596;1.428;2024-02-26T04:13:17;97826.88;;;18.08;47.67
82872;BME280;72646;43.596;1.428;2024-02-26T04:15:43;97824.41;;;18.07;47.58
82872;BME280;72646;43.596;1.428;2024-02-26T04:18:09;97809.66;;;17.98;47.70
82872;BME280;72646;43.596;1.428;2024-02-26T04:20:34;97816.72;;;18.04;47.54
82872;BME280;72646;43.596;1.428;2024-02-26T04:23:00;97822.78;;;18.06;47.53
82872;BME280;72646;43.596;1.428;2024-02-26T04:25:25;97824.72;;;18.05;47.87
82872;BME280;72646;43.596;1.428;2024-02-26T04:27:51;97808.00;;;17.97;47.56
82872;BME280;72646;43.596;1.428;2024-02-26T04:30:16;97803.84;;;17.99;47.57
82872;BME280;72646;43.596;1.428;2024-02-26T04:32:43;97809.03;;;18.01;47.51
82872;BME280;72646;43.596;1.428;2024-02-26T04:35:08;97784.25;;;17.96;47.80
82872;BME280;72646;43.596;1.428;2024-02-26T04:37:34;97803.84;;;17.99;47.73
82872;BME280;72646;43.596;1.428;2024-02-26T04:40:00;97796.44;;;17.95;47.49
82872;BME280;72646;43.596;1.428;2024-02-26T04:42:26;97808.22;;;18.00;47.38
82872;BME280;72646;43.596;1.428;2024-02-26T04:44:51;97813.59;;;17.92;47.80
82872;BME280;72646;43.596;1.428;2024-02-26T04:47:17;97816.84;;;17.94;47.78
82872;BME280;72646;43.596;1.428;2024-02-26T04:49:42;97818.81;;;17.93;48.03
82872;BME280;72646;43.596;1.428;2024-02-26T04:52:08;97818.81;;;17.93;47.87
82872;BME280;72646;43.596;1.428;2024-02-26T04:54:33;97821.78;;;17.97;47.43
82872;BME280;72646;43.596;1.428;2024-02-26T04:56:59;97811.34;;;17.94;47.41
82872;BME280;72646;43.596;1.428;2024-02-26T04:59:24;97811.63;;;17.92;47.29
82872;BME280;72646;43.596;1.428;2024-02-26T05:01:50;97810.75;;;17.97;47.22
82872;BME280;72646;43.596;1.428;2024-02-26T05:04:17;97805.53;;;17.95;47.70
82872;BME280;72646;43.596;1.428;2024-02-26T05:06:43;97817.63;;;17.99;47.19
82872;BME280;72646;43.596;1.428;2024-02-26T05:09:08;97816.56;;;17.95;47.14
82872;BME280;72646;43.596;1.428;2024-02-26T05:11:34;97834.25;;;17.94;47.37
82872;BME280;72646;43.596;1.428;2024-02-26T05:14:00;97825.09;;;17.99;47.18
82872;BME280;72646;43.596;1.428;2024-02-26T05:16:26;97831.75;;;17.98;47.38
82872;BME280;72646;43.596;1.428;2024-02-26T05:18:52;97822.91;;;17.96;47.31
82872;BME280;72646;43.596;1.428;2024-02-26T05:21:18;97833.13;;;17.95;47.21
82872;BME280;72646;43.596;1.428;2024-02-26T05:23:43;97841.66;;;17.99;47.09
82872;BME280;72646;43.596;1.428;2024-02-26T05:26:09;97813.13;;;17.85;47.46
82872;BME280;72646;43.596;1.428;2024-02-26T05:28:34;97830.91;;;17.97;47.49
82872;BME280;72646;43.596;1.428;2024-02-26T05:31:01;97818.44;;;18.00;47.27
82872;BME280;72646;43.596;1.428;2024-02-26T05:33:26;97824.78;;;18.00;47.49
82872;BME280;72646;43.596;1.428;2024-02-26T05:35:52;97825.38;;;17.97;47.54
82872;BME280;72646;43.596;1.428;2024-02-26T05:38:17;97837.25;;;17.98;47.50
82872;BME280;72646;43.596;1.428;2024-02-26T05:40:42;97835.31;;;17.98;47.58
82872;BME280;72646;43.596;1.428;2024-02-26T05:43:08;97824.34;;;17.93;47.34
82872;BME280;72646;43.596;1.428;2024-02-26T05:45:33;97810.59;;;17.88;47.26
82872;BME280;72646;43.596;1.428;2024-02-26T05:47:59;97829.47;;;18.00;47.17
82872;BME280;72646;43.596;1.428;2024-02-26T05:50:24;97845.25;;;17.99;47.39
82872;BME280;72646;43.596;1.428;2024-02-26T05:52:50;97840.06;;;17.93;47.20
82872;BME280;72646;43.596;1.428;2024-02-26T05:55:16;97841.94;;;17.97;47.07
82872;BME280;72646;43.596;1.428;2024-02-26T05:57:41;97844.72;;;17.97;47.21
82872;BME280;72646;43.596;1.428;2024-02-26T06:00:07;97847.47;;;17.97;47.20
82872;BME280;72646;43.596;1.428;2024-02-26T06:02:32;97844.75;;;17.92;47.10
82872;BME280;72646;43.596;1.428;2024-02-26T06:04:58;97835.69;;;17.92;47.17
82872;BME280;72646;43.596;1.428;2024-02-26T06:07:24;97826.81;;;17.95;47.42
82872;BME280;72646;43.596;1.428;2024-02-26T06:09:53;97835.31;;;17.98;47.40
82872;BME280;72646;43.596;1.428;2024-02-26T06:12:18;97839.47;;;17.96;47.04
82872;BME280;72646;43.596;1.428;2024-02-26T06:14:43;97849.09;;;17.98;46.92
82872;BME280;72646;43.596;1.428;2024-02-26T06:17:09;97840.59;;;17.95;46.87
82872;BME280;72646;43.596;1.428;2024-02-26T06:19:34;97854.34;;;18.00;49.14
82872;BME280;72646;43.596;1.428;2024-02-26T06:21:59;97849.56;;;18.05;51.27
82872;BME280;72646;43.596;1.428;2024-02-26T06:24:25;97856.97;;;18.10;53.73
82872;BME280;72646;43.596;1.428;2024-02-26T06:26:50;97819.03;;;17.97;56.79
82872;BME280;72646;43.596;1.428;2024-02-26T06:29:16;97851.69;;;18.13;58.98
82872;BME280;72646;43.596;1.428;2024-02-26T06:31:41;97850.81;;;18.18;58.31
82872;BME280;72646;43.596;1.428;2024-02-26T06:34:07;97860.44;;;18.20;59.12
82872;BME280;72646;43.596;1.428;2024-02-26T06:36:32;97847.22;;;18.17;58.68
82872;BME280;72646;43.596;1.428;2024-02-26T06:38:58;97854.84;;;18.25;58.32
82872;BME280;72646;43.596;1.428;2024-02-26T06:41:23;97879.53;;;18.40;57.86
82872;BME280;72646;43.596;1.428;2024-02-26T06:43:55;97883.81;;;18.51;55.99
82872;BME280;72646;43.596;1.428;2024-02-26T06:46:20;97876.19;;;18.62;55.54
82872;BME280;72646;43.596;1.428;2024-02-26T06:48:48;97893.28;;;18.82;54.80
82872;BME280;72646;43.596;1.428;2024-02-26T06:51:13;97889.28;;;18.93;54.25
82872;BME280;72646;43.596;1.428;2024-02-26T06:53:39;97873.72;;;18.97;53.23
82872;BME280;72646;43.596;1.428;2024-02-26T06:56:04;97897.25;;;19.13;53.03
82872;BME280;72646;43.596;1.428;2024-02-26T06:58:30;97899.91;;;19.18;52.72
82872;BME280;72646;43.596;1.428;2024-02-26T07:00:55;97900.38;;;19.25;52.17
82872;BME280;72646;43.596;1.428;2024-02-26T07:03:20;97911.00;;;19.37;51.48
82872;BME280;72646;43.596;1.428;2024-02-26T07:05:48;97909.06;;;19.37;51.40
82872;BME280;72646;43.596;1.428;2024-02-26T07:08:13;97912.44;;;19.48;51.00
82872;BME280;72646;43.596;1.428;2024-02-26T07:10:38;97909.59;;;19.53;50.58
82872;BME280;72646;43.596;1.428;2024-02-26T07:13:04;97911.25;;;19.54;50.47
82872;BME280;72646;43.596;1.428;2024-02-26T07:15:29;97915.28;;;19.61;49.96
82872;BME280;72646;43.596;1.428;2024-02-26T07:17:55;97913.84;;;19.64;49.72
82872;BME280;72646;43.596;1.428;2024-02-26T07:20:20;97922.88;;;19.69;49.45
82872;BME280;72646;43.596;1.428;2024-02-26T07:22:46;97922.19;;;19.78;49.21
82872;BME280;72646;43.596;1.428;2024-02-26T07:25:11;97915.22;;;19.80;48.99
82872;BME280;72646;43.596;1.428;2024-02-26T07:27:39;97934.28;;;19.82;48.43
82872;BME280;72646;43.596;1.428;2024-02-26T07:30:06;97920.97;;;19.84;48.35
82872;BME280;72646;43.596;1.428;2024-02-26T07:32:31;97922.00;;;19.88;48.05
82872;BME280;72646;43.596;1.428;2024-02-26T07:34:57;97922.31;;;19.86;47.94
82872;BME280;72646;43.596;1.428;2024-02-26T07:37:22;97925.97;;;19.95;47.63
82872;BME280;72646;43.596;1.428;2024-02-26T07:39:48;97944.16;;;20.01;47.53
82872;BME280;72646;43.596;1.428;2024-02-26T07:42:13;97929.28;;;19.97;47.53
82872;BME280;72646;43.596;1.428;2024-02-26T07:44:38;97939.34;;;20.07;47.11
82872;BME280;72646;43.596;1.428;2024-02-26T07:47:08;97928.56;;;20.05;46.71
82872;BME280;72646;43.596;1.428;2024-02-26T07:49:34;97938.47;;;20.11;46.94
82872;BME280;72646;43.596;1.428;2024-02-26T07:51:59;97935.38;;;20.13;46.35
82872;BME280;72646;43.596;1.428;2024-02-26T07:54:25;97944.72;;;20.17;46.17
82872;BME280;72646;43.596;1.428;2024-02-26T07:56:50;97950.56;;;20.15;46.15
82872;BME280;72646;43.596;1.428;2024-02-26T07:59:15;97944.72;;;20.17;46.20
82872;BME280;72646;43.596;1.428;2024-02-26T08:01:41;97937.47;;;20.21;45.77
82872;BME280;72646;43.596;1.428;2024-02-26T08:04:07;97928.09;;;20.17;45.70
82872;BME280;72646;43.596;1.428;2024-02-26T08:06:32;97946.06;;;20.19;45.36
82872;BME280;72646;43.596;1.428;2024-02-26T08:08:58;97921.34;;;20.23;45.26
82872;BME280;72646;43.596;1.428;2024-02-26T08:11:23;97940.94;;;20.26;44.40
82872;BME280;72646;43.596;1.428;2024-02-26T08:13:48;97933.56;;;20.22;44.61
82872;BME280;72646;43.596;1.428;2024-02-26T08:16:14;97939.50;;;20.29;44.73
82872;BME280;72646;43.596;1.428;2024-02-26T08:18:39;97943.91;;;20.30;44.64
82872;BME280;72646;43.596;1.428;2024-02-26T08:21:05;97935.50;;;20.35;44.47
82872;BME280;72646;43.596;1.428;2024-02-26T08:23:30;97940.13;;;20.39;44.22
82872;BME280;72646;43.596;1.428;2024-02-26T08:25:56;97941.25;;;20.38;43.62
82872;BME280;72646;43.596;1.428;2024-02-26T08:28:22;97946.28;;;20.36;43.88
82872;BME280;72646;43.596;1.428;2024-02-26T08:30:48;97937.66;;;20.38;43.71
82872;BME280;72646;43.596;1.428;2024-02-26T08:33:13;97934.78;;;20.43;44.00
82872;BME280;72646;43.596;1.428;2024-02-26T08:35:39;97936.41;;;20.44;43.63
82872;BME280;72646;43.596;1.428;2024-02-26T08:38:04;97935.00;;;20.46;43.64
82872;BME280;72646;43.596;1.428;2024-02-26T08:40:30;97929.94;;;20.48;43.27
82872;BME280;72646;43.596;1.428;2024-02-26T08:42:55;97932.22;;;20.46;43.37
82872;BME280;72646;43.596;1.428;2024-02-26T08:45:21;97931.59;;;20.49;43.08
82872;BME280;72646;43.596;1.428;2024-02-26T08:47:46;97922.88;;;20.42;42.96
82872;BME280;72646;43.596;1.428;2024-02-26T08:50:14;97936.19;;;20.54;43.08
82872;BME280;72646;43.596;1.428;2024-02-26T08:52:39;97929.25;;;20.56;42.98
82872;BME280;72646;43.596;1.428;2024-02-26T08:55:06;97915.28;;;20.48;42.65
82872;BME280;72646;43.596;1.428;2024-02-26T08:57:34;97928.00;;;20.49;42.71
82872;BME280;72646;43.596;1.428;2024-02-26T09:00:00;97951.91;;;20.58;42.75
82872;BME280;72646;43.596;1.428;2024-02-26T09:02:26;97957.38;;;20.63;43.19
82872;BME280;72646;43.596;1.428;2024-02-26T09:04:51;97955.50;;;20.59;42.70
82872;BME280;72646;43.596;1.428;2024-02-26T09:07:19;97964.44;;;20.56;42.68
82872;BME280;72646;43.596;1.428;2024-02-26T09:09:44;97951.09;;;20.58;42.44
82872;BME280;72646;43.596;1.428;2024-02-26T09:12:10;97957.16;;;20.60;42.58
82872;BME280;72646;43.596;1.428;2024-02-26T09:14:35;97951.81;;;20.63;42.48
82872;BME280;72646;43.596;1.428;2024-02-26T09:17:01;97954.78;;;20.67;42.45
82872;BME280;72646;43.596;1.428;2024-02-26T09:19:26;97954.38;;;20.73;41.84
82872;BME280;72646;43.596;1.428;2024-02-26T09:21:55;97963.72;;;20.77;42.04
82872;BME280;72646;43.596;1.428;2024-02-26T09:24:23;97953.94;;;20.80;41.64
82872;BME280;72646;43.596;1.428;2024-02-26T09:26:48;97969.88;;;20.74;41.48
82872;BME280;72646;43.596;1.428;2024-02-26T09:29:14;97974.19;;;20.67;41.48
82872;BME280;72646;43.596;1.428;2024-02-26T09:31:39;97970.41;;;20.63;41.77
82872;BME280;72646;43.596;1.428;2024-02-26T09:34:06;97971.94;;;20.55;41.62
82872;BME280;72646;43.596;1.428;2024-02-26T09:36:33;97975.00;;;20.54;41.77
82872;BME280;72646;43.596;1.428;2024-02-26T09:38:58;97980.38;;;20.50;41.63
82872;BME280;72646;43.596;1.428;2024-02-26T09:41:26;97975.13;;;20.49;41.20
82872;BME280;72646;43.596;1.428;2024-02-26T09:43:55;97982.44;;;20.45;41.50
82872;BME280;72646;43.596;1.428;2024-02-26T09:46:21;97968.34;;;20.41;41.58
82872;BME280;72646;43.596;1.428;2024-02-26T09:48:47;97966.50;;;20.37;41.34
82872;BME280;72646;43.596;1.428;2024-02-26T09:51:14;97963.22;;;20.35;41.11
82872;BME280;72646;43.596;1.428;2024-02-26T09:53:43;97964.34;;;20.34;41.17
82872;BME280;72646;43.596;1.428;2024-02-26T09:56:09;97956.94;;;20.43;41.03
82872;BME280;72646;43.596;1.428;2024-02-26T09:58:36;97946.06;;;20.33;40.37
82872;BME280;72646;43.596;1.428;2024-02-26T10:01:10;97932.00;;;20.43;40.56
82872;BME280;72646;43.596;1.428;2024-02-26T10:03:38;97952.75;;;20.32;40.71
82872;BME280;72646;43.596;1.428;2024-02-26T10:06:07;97952.94;;;20.22;40.83
82872;BME280;72646;43.596;1.428;2024-02-26T10:08:34;97953.88;;;20.17;41.08
82872;BME280;72646;43.596;1.428;2024-02-26T10:11:00;97956.41;;;20.14;41.17
82872;BME280;72646;43.596;1.428;2024-02-26T10:13:26;97947.66;;;20.07;41.09
82872;BME280;72646;43.596;1.428;2024-02-26T10:15:51;97946.78;;;20.11;40.80
82872;BME280;72646;43.596;1.428;2024-02-26T10:18:17;97937.25;;;20.17;40.47
82872;BME280;72646;43.596;1.428;2024-02-26T10:20:42;97925.63;;;20.15;40.17
82872;BME280;72646;43.596;1.428;2024-02-26T10:23:08;97936.41;;;20.17;40.10
82872;BME280;72646;43.596;1.428;2024-02-26T10:25:34;97941.22;;;20.11;40.08
82872;BME280;72646;43.596;1.428;2024-02-26T10:28:00;97927.94;;;20.08;39.93
82872;BME280;72646;43.596;1.428;2024-02-26T10:30:29;97949.53;;;20.11;39.99
82872;BME280;72646;43.596;1.428;2024-02-26T10:32:56;97935.97;;;20.10;40.06
82872;BME280;72646;43.596;1.428;2024-02-26T10:35:21;97942.94;;;20.07;40.08
82872;BME280;72646;43.596;1.428;2024-02-26T10:37:47;97933.09;;;20.01;40.08
82872;BME280;72646;43.596;1.428;2024-02-26T10:40:14;97917.91;;;19.99;39.73
82872;BME280;72646;43.596;1.428;2024-02-26T10:42:41;97940.59;;;20.01;39.52
82872;BME280;72646;43.596;1.428;2024-02-26T10:45:07;97928.38;;;20.02;39.58
82872;BME280;72646;43.596;1.428;2024-02-26T10:47:34;97922.91;;;19.97;39.62
82872;BME280;72646;43.596;1.428;2024-02-26T10:50:05;97936.16;;;20.00;39.66
82872;BME280;72646;43.596;1.428;2024-02-26T10:52:35;97925.91;;;20.00;39.48
82872;BME280;72646;43.596;1.428;2024-02-26T10:55:03;97910.44;;;19.99;39.44
82872;BME280;72646;43.596;1.428;2024-02-26T10:57:39;97891.13;;;19.81;39.21
82872;BME280;72646;43.596;1.428;2024-02-26T11:00:05;97923.31;;;19.90;39.35
82872;BME280;72646;43.596;1.428;2024-02-26T11:02:34;97931.88;;;19.94;39.26
82872;BME280;72646;43.596;1.428;2024-02-26T11:05:02;97918.81;;;19.94;39.54
82872;BME280;72646;43.596;1.428;2024-02-26T11:07:27;97930.19;;;19.93;39.13
82872;BME280;72646;43.596;1.428;2024-02-26T11:09:55;97916.03;;;19.81;39.06
82872;BME280;72646;43.596;1.428;2024-02-26T11:12:22;97930.91;;;19.85;39.21
82872;BME280;72646;43.596;1.428;2024-02-26T11:14:48;97937.34;;;19.80;39.11
82872;BME280;72646;43.596;1.428;2024-02-26T11:17:17;97947.59;;;19.80;39.53
82872;BME280;72646;43.596;1.428;2024-02-26T11:19:44;97942.66;;;19.77;39.27
82872;BME280;72646;43.596;1.428;2024-02-26T11:22:11;97928.03;;;19.76;39.28
82872;BME280;72646;43.596;1.428;2024-02-26T11:24:36;97932.13;;;19.79;39.18
82872;BME280;72646;43.596;1.428;2024-02-26T11:27:07;97928.63;;;19.73;39.18
82872;BME280;72646;43.596;1.428;2024-02-26T11:29:38;97927.59;;;19.69;39.43
82872;BME280;72646;43.596;1.428;2024-02-26T11:32:05;97940.41;;;19.65;39.04
82872;BME280;72646;43.596;1.428;2024-02-26T11:34:32;97925.44;;;19.66;38.94
82872;BME280;72646;43.596;1.428;2024-02-26T11:36:57;97918.34;;;19.60;39.47
82872;BME280;72646;43.596;1.428;2024-02-26T11:39:33;97902.13;;;19.53;39.70
82872;BME280;72646;43.596;1.428;2024-02-26T11:42:14;97905.50;;;19.50;39.11
82872;BME280;72646;43.596;1.428;2024-02-26T11:44:39;97918.50;;;19.50;39.89
82872;BME280;72646;43.596;1.428;2024-02-26T11:47:22;97915.16;;;19.53;39.58
82872;BME280;72646;43.596;1.428;2024-02-26T11:49:48;97915.75;;;19.50;39.62
82872;BME280;72646;43.596;1.428;2024-02-26T11:52:14;97918.81;;;19.48;39.43
82872;BME280;72646;43.596;1.428;2024-02-26T11:57:21;97899.97;;;19.50;39.74
82872;BME280;72646;43.596;1.428;2024-02-26T11:59:47;97903.66;;;19.46;39.59
82872;BME280;72646;43.596;1.428;2024-02-26T12:02:51;97885.41;;;19.45;39.71
82872;BME280;72646;43.596;1.428;2024-02-26T12:05:23;97883.44;;;19.45;39.66
82872;BME280;72646;43.596;1.428;2024-02-26T12:07:53;97893.59;;;19.50;39.75
82872;BME280;72646;43.596;1.428;2024-02-26T12:10:28;97872.38;;;19.45;40.04
82872;BME280;72646;43.596;1.428;2024-02-26T12:13:30;97875.97;;;19.46;40.11
82872;BME280;72646;43.596;1.428;2024-02-26T12:15:57;97864.47;;;19.39;39.38
82872;BME280;72646;43.596;1.428;2024-02-26T12:18:23;97850.75;;;19.47;39.47
82872;BME280;72646;43.596;1.428;2024-02-26T12:21:02;97846.88;;;19.48;39.43
82872;BME280;72646;43.596;1.428;2024-02-26T12:23:28;97856.78;;;19.49;39.48
82872;BME280;72646;43.596;1.428;2024-02-26T12:25:58;97854.03;;;19.49;39.27
82872;BME280;72646;43.596;1.428;2024-02-26T12:28:27;97832.72;;;19.50;39.33
82872;BME280;72646;43.596;1.428;2024-02-26T12:30:53;97828.09;;;19.45;38.86
82872;BME280;72646;43.596;1.428;2024-02-26T12:33:19;97835.78;;;19.48;39.33
82872;BME280;72646;43.596;1.428;2024-02-26T12:35:45;97837.72;;;19.48;39.03
82872;BME280;72646;43.596;1.428;2024-02-26T12:38:14;97831.16;;;19.44;38.97
82872;BME280;72646;43.596;1.428;2024-02-26T12:40:40;97836.41;;;19.45;39.13
82872;BME280;72646;43.596;1.428;2024-02-26T12:43:05;97833.44;;;19.42;39.04
82872;BME280;72646;43.596;1.428;2024-02-26T12:45:32;97834.84;;;19.39;39.17
82872;BME280;72646;43.596;1.428;2024-02-26T12:47:59;97832.38;;;19.38;39.23
82872;BME280;72646;43.596;1.428;2024-02-26T12:50:24;97819.06;;;19.40;38.99
82872;BME280;72646;43.596;1.428;2024-02-26T12:52:51;97829.59;;;19.38;38.92
82872;BME280;72646;43.596;1.428;2024-02-26T12:55:19;97824.19;;;19.33;39.04
82872;BME280;72646;43.596;1.428;2024-02-26T12:57:45;97803.47;;;19.30;38.89
82872;BME280;72646;43.596;1.428;2024-02-26T13:00:12;97814.75;;;19.34;38.99